createdAt,value
2018-12-26T00:00:51.592Z,20.40
2018-12-26T00:03:17.768Z,16.85
2018-12-26T00:05:44.039Z,19.30
2018-12-26T00:08:10.169Z,15.93
2018-12-26T00:10:36.322Z,17.98
2018-12-26T00:13:02.492Z,17.92
2018-12-26T00:15:28.721Z,18.33
2018-12-26T00:17:54.864Z,18.65
2018-12-26T00:20:21.010Z,17.00
2018-12-26T00:22:47.924Z,19.25
2018-12-26T00:25:14.200Z,17.00
2018-12-26T00:27:40.249Z,20.10
2018-12-26T00:30:06.422Z,21.48
2018-12-26T00:32:33.300Z,19.98
2018-12-26T00:34:59.492Z,17.52
2018-12-26T00:37:25.671Z,20.25
2018-12-26T00:39:51.817Z,19.10
2018-12-26T00:42:17.956Z,19.92
2018-12-26T00:44:44.102Z,19.02
2018-12-26T00:47:11.010Z,18.52
2018-12-26T00:49:37.164Z,21.55
2018-12-26T00:52:03.347Z,18.33
2018-12-26T00:54:29.519Z,19.70
2018-12-26T00:56:55.681Z,17.87
2018-12-26T00:59:21.874Z,17.12
2018-12-26T01:01:48.064Z,15.65
2018-12-26T01:04:14.239Z,16.90
2018-12-26T01:06:41.113Z,16.00
2018-12-26T01:09:07.296Z,17.35
2018-12-26T01:11:33.461Z,18.65
2018-12-26T01:13:59.610Z,18.05
2018-12-26T01:16:25.733Z,19.27
2018-12-26T01:18:51.900Z,19.73
2018-12-26T01:21:18.046Z,15.32
2018-12-26T01:23:44.931Z,18.65
2018-12-26T01:26:18.990Z,16.62
2018-12-26T01:28:37.999Z,18.87
2018-12-26T01:31:04.107Z,16.98
2018-12-26T01:33:30.243Z,18.75
2018-12-26T01:35:56.417Z,18.27
2018-12-26T01:38:22.560Z,20.42
2018-12-26T01:40:48.736Z,18.00
2018-12-26T01:43:14.883Z,17.90
2018-12-26T01:45:41.013Z,18.70
2018-12-26T01:48:07.181Z,19.35
2018-12-26T01:50:34.055Z,17.73
2018-12-26T01:53:00.208Z,17.48
2018-12-26T01:55:26.355Z,16.25
2018-12-26T01:57:53.298Z,21.77
2018-12-26T02:00:19.501Z,17.12
2018-12-26T02:02:45.618Z,17.12
2018-12-26T02:05:11.798Z,20.62
2018-12-26T02:07:38.677Z,20.45
2018-12-26T02:10:04.848Z,18.17
2018-12-26T02:12:30.981Z,17.15
2018-12-26T02:14:57.129Z,18.70
2018-12-26T02:17:24.006Z,19.60
2018-12-26T02:19:50.170Z,18.87
2018-12-26T02:22:16.422Z,18.48
2018-12-26T02:24:43.459Z,19.83
2018-12-26T02:27:09.761Z,23.02
2018-12-26T02:29:35.979Z,20.75
2018-12-26T02:32:02.138Z,19.52
2018-12-26T02:34:28.338Z,21.23
2018-12-26T02:36:54.567Z,18.80
2018-12-26T02:39:20.936Z,18.70
2018-12-26T02:41:47.102Z,19.08
2018-12-26T02:44:13.277Z,17.83
2018-12-26T02:46:39.587Z,17.52
2018-12-26T02:49:05.786Z,23.05
2018-12-26T02:51:31.985Z,19.83
2018-12-26T02:53:58.194Z,17.60
2018-12-26T02:56:24.392Z,24.75
2018-12-26T02:58:50.535Z,18.25
2018-12-26T03:01:16.741Z,19.52
2018-12-26T03:03:52.115Z,17.85
2018-12-26T03:06:19.139Z,21.00
2018-12-26T03:08:45.351Z,20.67
2018-12-26T03:11:11.499Z,21.27
2018-12-26T03:13:37.676Z,21.27
2018-12-26T03:16:04.643Z,18.83
2018-12-26T03:18:30.761Z,21.55
2018-12-26T03:20:57.686Z,21.67
2018-12-26T03:23:24.592Z,21.27
2018-12-26T03:25:50.764Z,22.00
2018-12-26T03:28:16.922Z,21.80
2018-12-26T03:30:43.093Z,23.55
2018-12-26T03:33:09.212Z,24.80
2018-12-26T03:35:35.447Z,23.90
2018-12-26T03:38:01.645Z,27.67
2018-12-26T03:40:27.792Z,21.62
2018-12-26T03:42:53.954Z,26.35
2018-12-26T03:45:20.127Z,26.65
2018-12-26T03:47:46.424Z,26.90
2018-12-26T03:50:12.543Z,27.48
2018-12-26T03:52:39.478Z,25.50
2018-12-26T03:55:06.404Z,28.50
2018-12-26T03:57:32.551Z,26.00
2018-12-26T03:59:59.660Z,26.83
2018-12-26T04:02:25.828Z,25.95
2018-12-26T04:04:52.047Z,26.30
2018-12-26T04:07:18.238Z,23.00
2018-12-26T04:09:44.407Z,26.77
2018-12-26T04:12:11.356Z,24.80
2018-12-26T04:14:38.270Z,23.85
2018-12-26T04:17:04.451Z,25.48
2018-12-26T04:19:30.603Z,27.85
2018-12-26T04:21:56.777Z,23.98
2018-12-26T04:24:22.952Z,23.80
2018-12-26T04:26:49.151Z,25.12
2018-12-26T04:29:16.041Z,27.87
2018-12-26T04:31:42.269Z,25.02
2018-12-26T04:34:08.469Z,26.58
2018-12-26T04:36:34.579Z,26.83
2018-12-26T04:39:00.777Z,26.37
2018-12-26T04:41:26.984Z,39.28
2018-12-26T04:43:53.191Z,23.55
2018-12-26T04:46:19.361Z,31.73
2018-12-26T04:48:45.679Z,24.98
2018-12-26T04:51:11.761Z,28.30
2018-12-26T04:53:37.927Z,29.80
2018-12-26T04:56:04.099Z,43.92
2018-12-26T04:58:30.322Z,32.05
2018-12-26T05:00:57.253Z,31.30
2018-12-26T05:03:23.375Z,30.10
2018-12-26T05:05:49.523Z,25.40
2018-12-26T05:08:16.426Z,43.95
2018-12-26T05:10:42.574Z,37.35
2018-12-26T05:13:08.762Z,30.17
2018-12-26T05:15:34.890Z,31.85
2018-12-26T05:18:01.095Z,30.88
2018-12-26T05:20:27.296Z,26.62
2018-12-26T05:22:54.223Z,39.72
2018-12-26T05:25:20.415Z,32.83
2018-12-26T05:27:46.567Z,30.92
2018-12-26T05:30:12.724Z,29.00
2018-12-26T05:32:39.036Z,37.15
2018-12-26T05:35:05.205Z,25.17
2018-12-26T05:37:31.593Z,35.35
2018-12-26T05:39:57.781Z,29.42
2018-12-26T05:42:23.950Z,32.80
2018-12-26T05:44:50.130Z,28.75
2018-12-26T05:47:16.270Z,26.37
2018-12-26T05:49:42.434Z,21.90
2018-12-26T05:52:08.577Z,26.58
2018-12-26T05:54:35.516Z,34.45
2018-12-26T05:57:01.655Z,26.27
2018-12-26T05:59:28.580Z,36.30
2018-12-26T06:01:54.771Z,25.60
2018-12-26T06:04:20.963Z,55.42
2018-12-26T06:06:47.875Z,49.80
2018-12-26T06:09:14.026Z,24.45
2018-12-26T06:11:40.958Z,37.25
2018-12-26T06:14:07.118Z,28.65
2018-12-26T06:16:33.302Z,33.90
2018-12-26T06:18:59.435Z,58.05
2018-12-26T06:21:26.354Z,32.92
2018-12-26T06:23:52.501Z,30.33
2018-12-26T06:26:18.657Z,29.48
2018-12-26T06:28:45.545Z,24.73
2018-12-26T06:31:11.781Z,53.35
2018-12-26T06:33:37.981Z,26.90
2018-12-26T06:36:04.156Z,28.50
2018-12-26T06:38:30.338Z,27.55
2018-12-26T06:40:56.512Z,44.20
2018-12-26T06:43:22.710Z,26.30
2018-12-26T06:45:48.832Z,38.47
2018-12-26T06:48:14.996Z,36.90
2018-12-26T06:50:41.223Z,26.25
2018-12-26T06:53:07.392Z,25.85
2018-12-26T06:55:33.566Z,77.25
2018-12-26T06:58:00.157Z,27.85
2018-12-26T07:00:25.949Z,30.67
2018-12-26T07:02:52.848Z,28.67
2018-12-26T07:05:19.006Z,26.60
2018-12-26T07:07:45.201Z,36.05
2018-12-26T07:10:11.390Z,58.40
2018-12-26T07:12:38.287Z,31.85
2018-12-26T07:15:04.435Z,33.13
2018-12-26T07:17:30.598Z,33.25
2018-12-26T07:19:56.751Z,69.80
2018-12-26T07:22:22.911Z,131.70
2018-12-26T07:24:49.058Z,32.40
2018-12-26T07:27:16.023Z,30.50
2018-12-26T07:29:42.911Z,32.55
2018-12-26T07:32:09.097Z,35.42
2018-12-26T07:34:42.148Z,36.03
2018-12-26T07:37:01.442Z,40.05
2018-12-26T07:39:27.613Z,41.83
2018-12-26T07:41:53.759Z,36.78
2018-12-26T07:44:19.877Z,41.05
2018-12-26T07:46:46.066Z,43.53
2018-12-26T07:49:12.243Z,53.53
2018-12-26T07:51:38.422Z,33.03
2018-12-26T07:54:04.568Z,66.97
2018-12-26T07:56:30.709Z,35.35
2018-12-26T07:58:56.872Z,40.58
2018-12-26T08:01:23.783Z,42.85
2018-12-26T08:03:49.971Z,68.87
2018-12-26T08:06:16.121Z,79.50
2018-12-26T08:08:42.279Z,38.78
2018-12-26T08:11:08.403Z,35.30
2018-12-26T08:13:34.573Z,39.92
2018-12-26T08:16:00.819Z,56.88
2018-12-26T08:18:28.027Z,37.22
2018-12-26T08:20:54.983Z,41.88
2018-12-26T08:23:22.053Z,46.37
2018-12-26T08:25:48.364Z,35.90
2018-12-26T08:28:14.650Z,31.23
2018-12-26T08:30:41.451Z,57.17
2018-12-26T08:33:07.645Z,53.83
2018-12-26T08:35:34.551Z,48.17
2018-12-26T08:38:00.736Z,65.22
2018-12-26T08:40:28.720Z,31.67
2018-12-26T08:42:54.786Z,44.92
2018-12-26T08:45:20.952Z,43.53
2018-12-26T08:47:47.158Z,44.72
2018-12-26T08:50:14.136Z,63.72
2018-12-26T08:52:41.115Z,37.25
2018-12-26T08:55:07.265Z,39.53
2018-12-26T08:57:33.428Z,41.03
2018-12-26T09:00:00.344Z,34.75
2018-12-26T09:02:26.540Z,33.65
2018-12-26T09:04:52.719Z,29.98
2018-12-26T09:07:18.891Z,37.45
2018-12-26T09:09:45.051Z,30.88
2018-12-26T09:12:11.195Z,33.05
2018-12-26T09:14:37.408Z,28.90
2018-12-26T09:17:03.979Z,29.27
2018-12-26T09:19:30.951Z,32.60
2018-12-26T09:21:57.138Z,29.73
2018-12-26T09:24:23.295Z,31.05
2018-12-26T09:26:49.476Z,30.48
2018-12-26T09:29:15.648Z,30.50
2018-12-26T09:31:41.839Z,29.77
2018-12-26T09:34:07.994Z,33.72
2018-12-26T09:36:34.236Z,32.22
2018-12-26T09:39:00.458Z,24.87
2018-12-26T09:41:26.594Z,28.38
2018-12-26T09:43:52.738Z,34.22
2018-12-26T09:46:18.898Z,30.10
2018-12-26T09:48:45.049Z,32.53
2018-12-26T09:51:11.956Z,43.42
2018-12-26T09:53:38.147Z,30.15
2018-12-26T09:56:04.309Z,28.08
2018-12-26T09:58:30.490Z,31.33
2018-12-26T10:00:56.655Z,45.55
2018-12-26T10:03:22.835Z,33.97
2018-12-26T10:05:49.751Z,35.33
2018-12-26T10:08:15.923Z,33.70
2018-12-26T10:10:42.082Z,34.05
2018-12-26T10:13:08.272Z,40.33
2018-12-26T10:15:34.435Z,35.88
2018-12-26T10:18:00.620Z,39.00
2018-12-26T10:20:27.536Z,42.15
2018-12-26T10:22:53.684Z,38.30
2018-12-26T10:25:20.604Z,30.80
2018-12-26T10:27:46.760Z,30.10
2018-12-26T10:30:12.940Z,30.05
2018-12-26T10:32:39.220Z,27.40
2018-12-26T10:35:05.321Z,33.88
2018-12-26T10:37:31.491Z,32.60
2018-12-26T10:39:57.644Z,33.28
2018-12-26T10:42:23.783Z,43.20
2018-12-26T10:44:49.893Z,36.42
2018-12-26T10:47:16.075Z,38.45
2018-12-26T10:49:42.222Z,30.08
2018-12-26T10:52:08.377Z,34.95
2018-12-26T10:54:34.505Z,32.33
2018-12-26T10:57:00.693Z,33.25
2018-12-26T10:59:26.853Z,38.65
2018-12-26T11:01:53.020Z,31.75
2018-12-26T11:04:19.148Z,36.60
2018-12-26T11:06:45.387Z,32.38
2018-12-26T11:09:11.567Z,39.88
2018-12-26T11:11:37.715Z,32.50
2018-12-26T11:14:03.853Z,35.97
2018-12-26T11:16:29.959Z,32.75
2018-12-26T11:18:56.157Z,40.95
2018-12-26T11:21:22.360Z,30.00
2018-12-26T11:23:48.499Z,40.65
2018-12-26T11:26:14.667Z,40.33
2018-12-26T11:28:40.840Z,32.97
2018-12-26T11:31:06.995Z,40.20
2018-12-26T11:33:33.168Z,40.08
2018-12-26T11:35:59.310Z,35.13
2018-12-26T11:38:25.448Z,39.50
2018-12-26T11:40:51.615Z,38.25
2018-12-26T11:43:17.795Z,30.83
2018-12-26T11:45:43.979Z,39.35
2018-12-26T11:48:10.121Z,40.85
2018-12-26T11:50:36.390Z,31.92
2018-12-26T11:53:02.574Z,40.95
2018-12-26T11:55:28.724Z,38.08
2018-12-26T11:57:54.969Z,36.95
2018-12-26T12:00:21.136Z,40.30
2018-12-26T12:02:47.316Z,35.72
2018-12-26T12:05:14.244Z,44.30
2018-12-26T12:07:40.392Z,36.25
2018-12-26T12:10:07.373Z,34.28
2018-12-26T12:12:33.536Z,44.80
2018-12-26T12:14:59.732Z,37.58
2018-12-26T12:17:25.870Z,40.60
2018-12-26T12:19:52.024Z,38.65
2018-12-26T12:22:18.270Z,39.92
2018-12-26T12:24:45.273Z,43.40
2018-12-26T12:27:11.430Z,46.30
2018-12-26T12:29:37.602Z,36.47
2018-12-26T12:32:03.793Z,40.75
2018-12-26T12:34:29.954Z,37.50
2018-12-26T12:36:56.151Z,34.22
2018-12-26T12:39:22.310Z,47.58
2018-12-26T12:41:48.467Z,37.17
2018-12-26T12:44:14.666Z,34.30
2018-12-26T12:46:40.876Z,34.83
2018-12-26T12:49:07.098Z,35.45
2018-12-26T12:51:34.024Z,35.78
2018-12-26T12:54:00.208Z,51.40
2018-12-26T12:56:26.364Z,36.25
2018-12-26T12:58:53.380Z,40.83
2018-12-26T13:01:19.548Z,38.38
2018-12-26T13:03:46.676Z,38.40
2018-12-26T13:06:12.055Z,40.70
2018-12-26T13:08:38.265Z,41.60
2018-12-26T13:11:04.444Z,46.83
2018-12-26T13:13:31.798Z,39.55
2018-12-26T13:15:57.685Z,39.08
2018-12-26T13:18:23.869Z,38.97
2018-12-26T13:20:50.033Z,44.25
2018-12-26T13:23:16.274Z,37.05
2018-12-26T13:25:42.709Z,38.38
2018-12-26T13:28:09.657Z,40.88
2018-12-26T13:30:35.842Z,38.08
2018-12-26T13:33:02.721Z,48.25
2018-12-26T13:35:28.915Z,43.63
2018-12-26T13:37:55.868Z,38.35
2018-12-26T13:40:22.724Z,38.72
2018-12-26T13:42:48.959Z,43.90
2018-12-26T13:45:15.201Z,42.15
2018-12-26T13:47:41.405Z,36.05
2018-12-26T13:50:07.588Z,40.85
2018-12-26T13:52:33.802Z,40.83
2018-12-26T13:54:59.998Z,41.55
2018-12-26T13:57:26.156Z,39.75
2018-12-26T13:59:52.412Z,48.45
2018-12-26T14:02:19.384Z,37.70
2018-12-26T14:04:45.615Z,42.08
2018-12-26T14:07:12.528Z,48.15
2018-12-26T14:09:38.718Z,41.03
2018-12-26T14:12:04.915Z,42.47
2018-12-26T14:14:31.783Z,42.03
2018-12-26T14:16:58.001Z,43.45
2018-12-26T14:19:25.416Z,38.60
2018-12-26T14:21:53.138Z,36.88
2018-12-26T14:24:20.405Z,45.25
2018-12-26T14:26:47.378Z,43.45
2018-12-26T14:29:14.398Z,42.35
2018-12-26T14:31:40.565Z,41.70
2018-12-26T14:34:07.503Z,40.83
2018-12-26T14:36:33.742Z,41.78
2018-12-26T14:39:00.727Z,41.50
2018-12-26T14:41:27.029Z,35.47
2018-12-26T14:43:53.222Z,44.28
2018-12-26T14:46:19.359Z,37.17
2018-12-26T14:48:45.543Z,38.17
2018-12-26T14:51:11.742Z,47.10
2018-12-26T14:53:37.919Z,42.80
2018-12-26T14:56:03.958Z,44.65
2018-12-26T14:58:29.978Z,42.42
2018-12-26T15:00:56.054Z,42.78
2018-12-26T15:03:22.058Z,40.33
2018-12-26T15:05:48.054Z,44.03
2018-12-26T15:08:14.082Z,50.33
2018-12-26T15:10:40.106Z,45.10
2018-12-26T15:13:06.186Z,42.03
2018-12-26T15:15:32.263Z,50.05
2018-12-26T15:17:58.279Z,46.67
2018-12-26T15:20:24.354Z,44.55
2018-12-26T15:22:50.413Z,45.17
2018-12-26T15:25:16.486Z,38.05
2018-12-26T15:27:42.533Z,52.55
2018-12-26T15:30:08.650Z,45.00
2018-12-26T15:32:34.678Z,54.20
2018-12-26T15:35:00.736Z,50.38
2018-12-26T15:37:27.140Z,44.15
2018-12-26T15:39:53.177Z,45.67
2018-12-26T15:42:19.407Z,47.78
2018-12-26T15:44:45.451Z,49.33
2018-12-26T15:47:11.532Z,46.37
2018-12-26T15:49:37.609Z,46.15
2018-12-26T15:52:03.683Z,46.08
2018-12-26T15:54:29.732Z,54.00
2018-12-26T15:56:55.756Z,45.92
2018-12-26T15:59:21.801Z,58.60
2018-12-26T16:01:47.853Z,46.72
2018-12-26T16:04:15.598Z,48.33
2018-12-26T16:06:41.593Z,43.22
2018-12-26T16:09:07.606Z,47.65
2018-12-26T16:11:33.645Z,43.38
2018-12-26T16:13:59.697Z,48.08
2018-12-26T16:16:25.693Z,42.38
2018-12-26T16:18:51.695Z,43.57
2018-12-26T16:21:17.738Z,53.17
2018-12-26T16:23:43.755Z,65.35
2018-12-26T16:26:09.799Z,58.22
2018-12-26T16:28:35.790Z,60.60
2018-12-26T16:31:02.274Z,57.60
2018-12-26T16:33:27.867Z,57.65
2018-12-26T16:35:53.885Z,66.97
2018-12-26T16:38:19.892Z,58.03
2018-12-26T16:40:45.906Z,46.30
2018-12-26T16:43:12.698Z,53.28
2018-12-26T16:45:38.693Z,53.20
2018-12-26T16:48:04.689Z,47.67
2018-12-26T16:50:30.700Z,45.90
2018-12-26T16:52:56.792Z,50.15
2018-12-26T16:55:23.540Z,47.62
2018-12-26T16:57:49.569Z,54.47
2018-12-26T17:00:15.661Z,48.13
2018-12-26T17:02:41.787Z,45.75
2018-12-26T17:05:08.914Z,47.13
2018-12-26T17:07:35.803Z,58.63
2018-12-26T17:10:01.904Z,55.05
2018-12-26T17:12:28.157Z,50.30
2018-12-26T17:14:54.175Z,58.22
2018-12-26T17:17:20.179Z,55.22
2018-12-26T17:19:46.207Z,54.47
2018-12-26T17:22:13.226Z,52.60
2018-12-26T17:24:39.273Z,49.60
2018-12-26T17:27:05.270Z,51.72
2018-12-26T17:29:31.290Z,54.97
2018-12-26T17:31:57.319Z,51.17
2018-12-26T17:34:24.089Z,52.13
2018-12-26T17:36:50.087Z,58.63
2018-12-26T17:39:16.112Z,54.13
2018-12-26T17:41:44.124Z,60.38
2018-12-26T17:44:10.117Z,60.10
2018-12-26T17:46:36.133Z,61.87
2018-12-26T17:49:02.917Z,51.78
2018-12-26T17:51:28.926Z,56.80
2018-12-26T17:53:56.746Z,59.20
2018-12-26T17:56:24.631Z,56.78
2018-12-26T17:58:55.185Z,61.08
2018-12-26T18:01:24.004Z,54.67
2018-12-26T18:03:50.003Z,49.72
2018-12-26T18:06:16.103Z,51.37
2018-12-26T18:08:42.125Z,58.47
2018-12-26T18:11:08.141Z,61.80
2018-12-26T18:13:34.142Z,54.83
2018-12-26T18:16:00.158Z,61.08
2018-12-26T18:18:26.181Z,52.45
2018-12-26T18:20:52.220Z,50.88
2018-12-26T18:23:18.222Z,54.75
2018-12-26T18:25:44.250Z,57.10
2018-12-26T18:28:10.315Z,50.72
2018-12-26T18:30:37.096Z,48.72
2018-12-26T18:33:03.077Z,58.20
2018-12-26T18:35:29.803Z,58.37
2018-12-26T18:37:55.788Z,62.25
2018-12-26T18:40:21.798Z,62.10
2018-12-26T18:42:47.782Z,59.97
2018-12-26T18:45:14.545Z,58.97
2018-12-26T18:47:40.621Z,57.33
2018-12-26T18:50:06.664Z,60.38
2018-12-26T18:52:32.709Z,55.95
2018-12-26T18:54:58.725Z,49.05
2018-12-26T18:57:24.760Z,65.30
2018-12-26T18:59:50.786Z,50.72
2018-12-26T19:02:16.936Z,57.13
2018-12-26T19:04:43.070Z,62.10
2018-12-26T19:07:09.151Z,65.62
2018-12-26T19:09:35.221Z,52.35
2018-12-26T19:12:01.234Z,48.22
2018-12-26T19:14:27.228Z,55.80
2018-12-26T19:16:53.253Z,57.33
2018-12-26T19:19:19.293Z,55.22
2018-12-26T19:21:45.357Z,50.95
2018-12-26T19:24:11.367Z,56.95
2018-12-26T19:26:37.362Z,51.10
2018-12-26T19:29:03.363Z,50.90
2018-12-26T19:31:29.397Z,41.80
2018-12-26T19:33:55.449Z,39.58
2018-12-26T19:36:21.473Z,48.95
2018-12-26T19:38:47.601Z,46.83
2018-12-26T19:41:13.615Z,47.40
2018-12-26T19:43:39.628Z,43.08
2018-12-26T19:46:05.656Z,38.92
2018-12-26T19:48:31.665Z,41.00
2018-12-26T19:50:57.705Z,43.42
2018-12-26T19:53:23.713Z,43.05
2018-12-26T19:55:49.769Z,42.28
2018-12-26T19:58:15.767Z,42.08
2018-12-26T20:00:41.835Z,40.97
2018-12-26T20:03:08.580Z,44.45
2018-12-26T20:05:35.429Z,44.20
2018-12-26T20:08:01.446Z,41.58
2018-12-26T20:10:27.464Z,45.10
2018-12-26T20:12:53.442Z,44.40
2018-12-26T20:15:19.488Z,42.97
2018-12-26T20:17:45.499Z,45.72
2018-12-26T20:20:11.507Z,45.90
2018-12-26T20:22:37.536Z,49.60
2018-12-26T20:25:03.520Z,42.80
2018-12-26T20:27:29.506Z,52.00
2018-12-26T20:29:55.744Z,50.00
2018-12-26T20:32:21.745Z,53.83
2018-12-26T20:34:47.869Z,54.42
2018-12-26T20:37:13.907Z,50.53
2018-12-26T20:39:40.706Z,51.95
2018-12-26T20:42:06.678Z,48.00
2018-12-26T20:44:32.709Z,59.43
2018-12-26T20:46:58.725Z,56.50
2018-12-26T20:49:25.465Z,58.75
2018-12-26T20:51:55.383Z,55.85
2018-12-26T20:54:21.686Z,53.35
2018-12-26T20:56:47.679Z,56.95
2018-12-26T20:59:13.704Z,53.13
2018-12-26T21:01:39.731Z,56.55
2018-12-26T21:04:05.761Z,50.83
2018-12-26T21:06:31.809Z,55.80
2018-12-26T21:08:57.945Z,61.88
2018-12-26T21:11:23.985Z,51.72
2018-12-26T21:13:50.026Z,57.20
2018-12-26T21:16:16.071Z,58.90
2018-12-26T21:18:42.075Z,51.22
2018-12-26T21:21:08.060Z,61.00
2018-12-26T21:23:34.116Z,56.30
2018-12-26T21:26:00.176Z,48.05
2018-12-26T21:28:26.288Z,65.80
2018-12-26T21:30:52.313Z,57.53
2018-12-26T21:33:18.388Z,48.78
2018-12-26T21:35:46.091Z,58.00
2018-12-26T21:38:12.123Z,58.80
2018-12-26T21:40:38.108Z,56.85
2018-12-26T21:43:04.214Z,55.03
2018-12-26T21:45:30.229Z,65.15
2018-12-26T21:47:56.948Z,55.55
2018-12-26T21:50:22.951Z,54.50
2018-12-26T21:52:48.961Z,59.42
2018-12-26T21:55:14.961Z,51.63
2018-12-26T21:57:40.969Z,55.83
2018-12-26T22:00:06.961Z,57.50
2018-12-26T22:02:32.947Z,47.30
2018-12-26T22:04:58.959Z,50.50
2018-12-26T22:07:25.009Z,50.90
2018-12-26T22:09:51.010Z,50.90
2018-12-26T22:12:17.005Z,50.95
2018-12-26T22:14:43.018Z,49.92
2018-12-26T22:17:09.101Z,48.50
2018-12-26T22:19:35.100Z,44.13
2018-12-26T22:22:01.085Z,43.60
2018-12-26T22:24:27.111Z,40.93
2018-12-26T22:26:53.126Z,40.95
2018-12-26T22:29:19.089Z,42.53
2018-12-26T22:31:45.057Z,43.10
2018-12-26T22:34:11.796Z,42.57
2018-12-26T22:36:37.794Z,40.83
2018-12-26T22:39:03.837Z,41.17
2018-12-26T22:41:29.842Z,38.55
2018-12-26T22:43:55.842Z,41.95
2018-12-26T22:46:21.885Z,36.10
2018-12-26T22:48:47.861Z,41.75
2018-12-26T22:51:13.851Z,49.00
2018-12-26T22:53:39.866Z,44.67
2018-12-26T22:56:05.853Z,41.08
2018-12-26T22:58:31.830Z,38.03
2018-12-26T23:00:58.617Z,43.17
2018-12-26T23:03:24.629Z,45.65
2018-12-26T23:05:50.625Z,37.65
2018-12-26T23:08:16.630Z,52.80
2018-12-26T23:10:42.632Z,47.70
2018-12-26T23:13:08.647Z,40.67
2018-12-26T23:15:34.669Z,43.85
2018-12-26T23:18:00.687Z,41.63
2018-12-26T23:20:26.685Z,43.80
2018-12-26T23:22:52.950Z,42.70
2018-12-26T23:25:19.008Z,45.12
2018-12-26T23:27:45.001Z,45.83
2018-12-26T23:30:11.009Z,47.97
2018-12-26T23:32:37.033Z,43.70
2018-12-26T23:35:03.111Z,46.03
2018-12-26T23:37:29.082Z,48.60
2018-12-26T23:39:55.105Z,39.60
2018-12-26T23:42:21.135Z,36.35
2018-12-26T23:44:47.914Z,40.70
2018-12-26T23:47:14.658Z,41.92
2018-12-26T23:49:40.688Z,47.62
2018-12-26T23:52:06.693Z,44.05
2018-12-26T23:54:33.452Z,46.30
2018-12-26T23:56:59.473Z,41.47
2018-12-26T23:59:25.471Z,39.47
